createdAt,value
2022-10-15T00:00:18.416Z,99728.63
2022-10-15T00:03:19.943Z,99723.22
2022-10-15T00:06:21.649Z,99725.97
2022-10-15T00:09:23.058Z,99727.59
2022-10-15T00:12:24.529Z,99722.28
2022-10-15T00:15:26.029Z,99715.91
2022-10-15T00:18:27.775Z,99719.50
2022-10-15T00:21:29.587Z,99717.72
2022-10-15T00:24:31.013Z,99723.78
2022-10-15T00:27:33.852Z,99717.41
2022-10-15T00:30:35.337Z,99713.81
2022-10-15T00:33:37.950Z,99710.22
2022-10-15T00:36:39.350Z,99712.59
2022-10-15T00:39:40.730Z,99715.25
2022-10-15T00:42:42.270Z,99710.69
2022-10-15T00:45:43.748Z,99716.66
2022-10-15T00:48:49.687Z,99717.19
2022-10-15T00:52:09.847Z,99718.91
2022-10-15T00:55:18.590Z,99717.00
2022-10-15T00:58:27.698Z,99710.91
2022-10-15T01:01:30.218Z,99714.19
2022-10-15T01:04:32.078Z,99706.88
2022-10-15T01:07:33.598Z,99698.16
2022-10-15T01:10:48.808Z,99699.88
2022-10-15T01:14:11.466Z,99695.28
2022-10-15T01:17:26.544Z,99696.81
2022-10-15T01:21:00.553Z,99695.13
2022-10-15T01:24:41.407Z,99698.56
2022-10-15T01:27:56.287Z,99698.88
2022-10-15T01:31:50.294Z,99699.50
2022-10-15T01:35:20.185Z,99691.00
2022-10-15T01:38:24.564Z,99686.22
2022-10-15T01:41:50.272Z,99695.13
2022-10-15T01:45:00.632Z,99681.44
2022-10-15T01:48:09.489Z,99678.22
2022-10-15T01:51:15.269Z,99680.66
2022-10-15T01:54:19.147Z,99687.06
2022-10-15T01:57:25.027Z,99695.81
2022-10-15T02:00:27.158Z,99689.44
2022-10-15T02:03:28.641Z,99688.13
2022-10-15T02:06:42.331Z,99688.44
2022-10-15T02:10:02.777Z,99691.56
2022-10-15T02:13:31.828Z,99696.44
2022-10-15T02:16:40.756Z,99682.06
2022-10-15T02:19:52.515Z,99685.91
2022-10-15T02:22:56.859Z,99682.06
2022-10-15T02:25:58.620Z,99674.53
2022-10-15T02:29:02.107Z,99681.66
2022-10-15T02:32:07.148Z,99678.38
2022-10-15T02:35:10.473Z,99684.53
2022-10-15T02:38:18.726Z,99690.06
2022-10-15T02:41:20.509Z,99697.63
2022-10-15T02:44:22.388Z,99688.16
2022-10-15T02:50:30.228Z,99679.63
2022-10-15T02:53:32.289Z,99672.41
2022-10-15T02:56:34.728Z,99686.44
2022-10-15T02:59:36.798Z,99686.03
2022-10-15T03:02:38.226Z,99691.56
2022-10-15T03:05:40.201Z,99687.72
2022-10-15T03:08:42.672Z,99689.22
2022-10-15T03:11:44.805Z,99690.72
2022-10-15T03:14:46.279Z,99696.25
2022-10-15T03:17:49.122Z,99687.31
2022-10-15T03:20:56.267Z,99688.25
2022-10-15T03:23:59.039Z,99689.97
2022-10-15T03:27:01.361Z,99693.09
2022-10-15T03:30:04.981Z,99694.16
2022-10-15T03:33:08.532Z,99694.69
2022-10-15T03:36:10.604Z,99697.56
2022-10-15T03:39:12.820Z,99690.53
2022-10-15T03:42:14.846Z,99696.06
2022-10-15T03:45:23.574Z,99696.06
2022-10-15T03:48:34.428Z,99702.31
2022-10-15T03:51:36.411Z,99708.78
2022-10-15T03:54:43.349Z,99711.81
2022-10-15T03:57:45.878Z,99713.53
2022-10-15T04:00:47.479Z,99705.44
2022-10-15T04:03:53.093Z,99702.66
2022-10-15T04:06:56.539Z,99702.47
2022-10-15T04:09:59.149Z,99705.53
2022-10-15T04:13:06.271Z,99708.59
2022-10-15T04:16:09.248Z,99717.91
2022-10-15T04:19:11.336Z,99718.63
2022-10-15T04:22:14.105Z,99720.00
2022-10-15T04:25:21.506Z,99731.19
2022-10-15T04:28:22.958Z,99729.94
2022-10-15T04:31:24.838Z,99740.75
2022-10-15T04:34:27.122Z,99741.00
2022-10-15T04:37:28.661Z,99748.22
2022-10-15T04:40:30.238Z,99747.78
2022-10-15T04:43:32.098Z,99742.38
2022-10-15T04:46:38.044Z,99746.53
2022-10-15T04:49:56.077Z,99749.94
2022-10-15T04:53:15.891Z,99749.00
2022-10-15T04:56:21.043Z,99749.94
2022-10-15T04:59:22.550Z,99760.78
2022-10-15T05:02:52.814Z,99763.75
2022-10-15T05:06:09.826Z,99774.41
2022-10-15T05:09:13.298Z,99769.31
2022-10-15T05:12:18.840Z,99778.69
2022-10-15T05:15:20.729Z,99781.75
2022-10-15T05:18:22.238Z,99772.38
2022-10-15T05:21:27.574Z,99777.28
2022-10-15T05:24:32.093Z,99781.75
2022-10-15T05:27:38.220Z,99790.19
2022-10-15T05:30:40.415Z,99786.09
2022-10-15T05:33:42.075Z,99797.72
2022-10-15T05:36:43.821Z,99803.53
2022-10-15T05:39:45.236Z,99801.44
2022-10-15T05:42:51.489Z,99810.19
2022-10-15T05:45:57.014Z,99807.38
2022-10-15T05:48:58.616Z,99816.53
2022-10-15T05:52:01.396Z,99820.41
2022-10-15T05:55:31.776Z,99821.69
2022-10-15T05:58:37.217Z,99833.81
2022-10-15T06:01:39.368Z,99834.22
2022-10-15T06:04:40.753Z,99844.06
2022-10-15T06:07:42.166Z,99844.19
2022-10-15T06:10:44.239Z,99855.03
2022-10-15T06:13:46.506Z,99857.59
2022-10-15T06:16:50.605Z,99852.19
2022-10-15T06:19:52.008Z,99862.06
2022-10-15T06:23:00.129Z,99872.59
2022-10-15T06:26:04.040Z,99868.13
2022-10-15T06:29:05.509Z,99882.13
2022-10-15T06:32:11.033Z,99881.25
2022-10-15T06:35:20.273Z,99881.44
2022-10-15T06:38:21.857Z,99890.47
2022-10-15T06:41:23.444Z,99896.75
2022-10-15T06:44:24.948Z,99902.47
2022-10-15T06:47:26.557Z,99909.31
2022-10-15T06:50:28.174Z,99916.31
2022-10-15T06:53:31.182Z,99914.91
2022-10-15T06:56:32.667Z,99919.94
2022-10-15T06:59:35.792Z,99922.72
2022-10-15T07:02:38.548Z,99927.38
2022-10-15T07:05:40.071Z,99934.19
2022-10-15T07:08:41.473Z,99934.94
2022-10-15T07:11:42.913Z,99937.72
2022-10-15T07:14:44.285Z,99937.50
2022-10-15T07:17:50.657Z,99938.94
2022-10-15T07:20:52.052Z,99938.38
2022-10-15T07:23:53.531Z,99937.19
2022-10-15T07:26:55.000Z,99942.75
2022-10-15T07:29:56.400Z,99945.31
2022-10-15T07:32:59.482Z,99946.56
2022-10-15T07:36:08.712Z,99948.66
2022-10-15T07:39:10.512Z,99944.84
2022-10-15T07:45:14.411Z,99954.63
2022-10-15T07:48:16.631Z,99960.81
2022-10-15T07:54:24.785Z,99964.41
2022-10-15T07:57:26.246Z,99963.66
2022-10-15T08:00:28.059Z,99968.88
2022-10-15T08:03:30.514Z,99974.56
2022-10-15T08:06:32.722Z,99971.84
2022-10-15T08:09:34.233Z,99976.09
2022-10-15T08:12:36.356Z,99969.75
2022-10-15T08:15:42.326Z,99960.81
2022-10-15T08:18:44.691Z,99970.38
2022-10-15T08:21:47.498Z,99964.41
2022-10-15T08:24:49.114Z,99971.44
2022-10-15T08:27:52.796Z,99976.56
2022-10-15T08:30:55.502Z,99979.03
2022-10-15T08:33:59.988Z,99987.03
2022-10-15T08:37:02.859Z,99984.75
2022-10-15T08:40:05.312Z,99979.63
2022-10-15T08:43:06.991Z,99977.16
2022-10-15T08:46:23.780Z,99984.84
2022-10-15T08:49:50.612Z,99988.47
2022-10-15T08:52:54.263Z,99994.81
2022-10-15T08:56:00.918Z,99997.78
2022-10-15T08:59:21.026Z,99993.09
2022-10-15T09:02:44.813Z,100003.72
2022-10-15T09:05:49.212Z,100003.91
2022-10-15T09:09:02.202Z,99988.81
2022-10-15T09:12:15.537Z,99995.66
2022-10-15T09:15:24.102Z,99994.13
2022-10-15T09:18:34.144Z,99989.56
2022-10-15T09:21:35.998Z,99991.38
2022-10-15T09:24:37.421Z,99998.41
2022-10-15T09:27:39.726Z,99998.88
2022-10-15T09:30:55.105Z,99993.53
2022-10-15T09:34:12.799Z,100003.13
2022-10-15T09:37:25.727Z,99994.81
2022-10-15T09:41:16.414Z,100007.44
2022-10-15T09:44:21.290Z,100003.72
2022-10-15T09:47:26.380Z,100006.94
2022-10-15T09:50:45.204Z,100015.31
2022-10-15T09:53:59.586Z,100011.66
2022-10-15T09:57:01.521Z,100012.78
2022-10-15T10:00:08.468Z,100023.22
2022-10-15T10:03:15.786Z,100019.84
2022-10-15T10:06:17.391Z,100025.84
2022-10-15T10:09:23.442Z,100023.91
2022-10-15T10:12:32.224Z,100030.44
2022-10-15T10:15:41.825Z,100027.47
2022-10-15T10:18:50.386Z,100023.31
2022-10-15T10:22:06.972Z,100030.53
2022-10-15T10:25:26.704Z,100040.25
2022-10-15T10:28:34.136Z,100027.38
2022-10-15T10:31:42.424Z,100020.13
2022-10-15T10:34:50.170Z,100018.00
2022-10-15T10:37:54.416Z,100027.19
2022-10-15T10:41:00.342Z,100023.16
2022-10-15T10:44:01.741Z,100024.91
2022-10-15T10:47:20.028Z,100020.00
2022-10-15T10:50:32.624Z,100015.63
2022-10-15T10:53:47.976Z,100020.31
2022-10-15T10:56:49.495Z,100020.41
2022-10-15T10:59:56.204Z,100019.47
2022-10-15T11:02:57.689Z,100008.59
2022-10-15T11:06:25.899Z,100005.69
2022-10-15T11:09:56.251Z,99990.78
2022-10-15T11:13:13.793Z,100009.66
2022-10-15T11:16:33.622Z,100014.69
2022-10-15T11:20:13.156Z,99996.97
2022-10-15T11:23:35.578Z,99999.97
2022-10-15T11:26:59.639Z,99994.19
2022-10-15T11:30:36.050Z,99991.13
2022-10-15T11:34:07.260Z,99992.06
2022-10-15T11:37:15.943Z,99984.16
2022-10-15T11:40:45.838Z,99983.97
2022-10-15T11:44:03.006Z,99990.25
2022-10-15T11:47:16.810Z,99996.53
2022-10-15T11:50:40.167Z,99986.94
2022-10-15T11:54:04.572Z,99982.06
2022-10-15T11:57:10.669Z,99986.94
2022-10-15T12:00:11.995Z,99984.41
2022-10-15T12:03:27.813Z,99979.50
2022-10-15T12:06:37.357Z,99976.91
2022-10-15T12:09:44.398Z,99976.69
2022-10-15T12:13:05.363Z,99991.41
2022-10-15T12:16:12.978Z,99982.56
2022-10-15T12:19:20.259Z,99973.06
2022-10-15T12:22:40.076Z,99978.94
2022-10-15T12:25:45.117Z,99975.63
2022-10-15T12:28:48.735Z,99970.09
2022-10-15T12:31:53.619Z,99973.06
2022-10-15T12:35:04.272Z,99980.13
2022-10-15T12:38:25.140Z,99973.31
2022-10-15T12:41:47.802Z,99981.41
2022-10-15T12:44:50.116Z,99978.63
2022-10-15T12:48:06.554Z,99971.16
2022-10-15T12:51:35.225Z,99970.84
2022-10-15T12:54:41.747Z,99969.03
2022-10-15T12:57:45.973Z,99965.22
2022-10-15T13:00:47.451Z,99967.13
2022-10-15T13:03:49.067Z,99963.88
2022-10-15T13:06:51.175Z,99958.34
2022-10-15T13:09:52.992Z,99969.13
2022-10-15T13:13:03.762Z,99959.66
2022-10-15T13:16:09.348Z,99962.84
2022-10-15T13:19:25.124Z,99956.44
2022-10-15T13:22:30.139Z,99951.13
2022-10-15T13:25:32.210Z,99954.31
2022-10-15T13:28:37.996Z,99951.97
2022-10-15T13:31:44.826Z,99954.75
2022-10-15T13:34:46.286Z,99956.69
2022-10-15T13:37:48.454Z,99962.19
2022-10-15T13:40:52.080Z,99958.59
2022-10-15T13:43:58.530Z,99957.63
2022-10-15T13:47:00.006Z,99965.09
2022-10-15T13:50:18.761Z,99958.38
2022-10-15T13:53:40.117Z,99961.25
2022-10-15T13:57:00.085Z,99956.69
2022-10-15T14:00:01.794Z,99966.38
2022-10-15T14:03:15.993Z,99967.09
2022-10-15T14:06:32.321Z,99963.50
2022-10-15T14:09:37.132Z,99959.66
2022-10-15T14:12:38.566Z,99963.06
2022-10-15T14:15:44.384Z,99971.34
2022-10-15T14:18:49.631Z,99971.75
2022-10-15T14:21:52.310Z,99973.25
2022-10-15T14:24:55.738Z,99973.63
2022-10-15T14:27:57.232Z,99977.53
2022-10-15T14:31:00.308Z,99980.09
2022-10-15T14:34:02.067Z,99977.53
2022-10-15T14:37:35.293Z,99987.13
2022-10-15T14:40:37.034Z,99984.66
2022-10-15T14:43:38.510Z,99992.19
2022-10-15T14:46:43.566Z,100001.19
2022-10-15T14:49:45.658Z,99988.47
2022-10-15T14:52:50.334Z,99989.41
2022-10-15T14:55:56.653Z,99991.00
2022-10-15T14:58:58.601Z,99989.28
2022-10-15T15:02:03.139Z,99987.97
2022-10-15T15:05:10.611Z,99994.69
2022-10-15T15:08:12.771Z,99981.56
2022-10-15T15:11:19.221Z,99984.91
2022-10-15T15:14:25.507Z,99995.41
2022-10-15T15:17:28.876Z,99996.41
2022-10-15T15:20:30.386Z,99996.63
2022-10-15T15:23:32.659Z,100001.59
2022-10-15T15:26:34.060Z,100000.75
2022-10-15T15:29:35.443Z,100001.41
2022-10-15T15:32:36.838Z,100007.69
2022-10-15T15:35:51.847Z,100011.53
2022-10-15T15:38:58.484Z,100003.09
2022-10-15T15:41:59.986Z,100000.06
2022-10-15T15:45:01.393Z,100002.72
2022-10-15T15:48:03.613Z,100003.66
2022-10-15T15:51:20.971Z,100002.72
2022-10-15T15:54:22.381Z,99996.66
2022-10-15T15:57:24.176Z,100000.16
2022-10-15T16:00:25.731Z,99999.97
2022-10-15T16:03:27.111Z,100005.47
2022-10-15T16:06:28.567Z,100005.28
2022-10-15T16:09:29.954Z,100004.84
2022-10-15T16:12:33.863Z,100000.16
2022-10-15T16:15:35.258Z,100010.41
2022-10-15T16:18:37.691Z,100012.78
2022-10-15T16:21:39.078Z,100020.22
2022-10-15T16:24:40.866Z,100018.50
2022-10-15T16:27:45.414Z,100030.50
2022-10-15T16:30:46.806Z,100029.97
2022-10-15T16:33:48.686Z,100029.56
2022-10-15T16:36:50.415Z,100038.50
2022-10-15T16:39:51.812Z,100039.09
2022-10-15T16:42:53.251Z,100041.38
2022-10-15T16:45:58.514Z,100048.41
2022-10-15T16:49:00.009Z,100060.09
2022-10-15T16:52:01.386Z,100063.84
2022-10-15T16:55:03.498Z,100073.31
2022-10-15T16:58:04.876Z,100070.84
2022-10-15T17:01:10.929Z,100065.78
2022-10-15T17:04:12.574Z,100080.91
2022-10-15T17:07:14.122Z,100082.81
2022-10-15T17:10:15.709Z,100089.84
2022-10-15T17:14:04.059Z,100099.16
2022-10-15T17:17:41.863Z,100097.44
2022-10-15T17:21:48.560Z,100099.91
2022-10-15T17:43:26.584Z,100099.72
2022-10-15T17:46:29.202Z,100104.59
2022-10-15T17:49:30.586Z,100107.16
2022-10-15T17:52:32.498Z,100110.66
2022-10-15T17:55:33.923Z,100112.28
2022-10-15T17:58:35.434Z,100108.47
2022-10-15T18:01:57.323Z,100110.19
2022-10-15T18:05:00.748Z,100110.50
2022-10-15T18:08:04.033Z,100114.00
2022-10-15T18:11:06.473Z,100122.00
2022-10-15T18:14:08.481Z,100115.91
2022-10-15T18:17:10.900Z,100117.63
2022-10-15T18:20:13.470Z,100112.94
2022-10-15T18:23:15.902Z,100111.44
2022-10-15T18:26:20.708Z,100123.50
2022-10-15T18:29:22.574Z,100132.34
2022-10-15T18:32:24.256Z,100129.88
2022-10-15T18:35:25.748Z,100128.91
2022-10-15T18:38:27.135Z,100131.66
2022-10-15T18:41:33.352Z,100132.34
2022-10-15T18:44:34.997Z,100135.31
2022-10-15T18:47:36.377Z,100139.66
2022-10-15T18:50:40.811Z,100140.81
2022-10-15T18:53:42.295Z,100134.44
2022-10-15T18:56:43.821Z,100140.63
2022-10-15T18:59:47.333Z,100131.66
2022-10-15T19:02:48.748Z,100138.69
2022-10-15T19:05:51.073Z,100147.53
2022-10-15T19:08:52.499Z,100147.47
2022-10-15T19:11:55.310Z,100138.53
2022-10-15T19:14:56.706Z,100143.66
2022-10-15T19:17:58.339Z,100145.56
2022-10-15T19:35:47.197Z,100149.56
2022-10-15T19:48:02.573Z,100160.13
2022-10-15T20:00:38.497Z,100177.28
2022-10-15T20:16:22.282Z,100188.91
2022-10-15T20:19:25.287Z,100192.53
2022-10-15T20:22:26.957Z,100190.81
2022-10-15T20:25:29.091Z,100183.75
2022-10-15T20:28:30.955Z,100183.75
2022-10-15T20:31:34.780Z,100185.28
2022-10-15T20:34:36.320Z,100200.88
2022-10-15T20:37:37.751Z,100189.47
2022-10-15T20:40:39.998Z,100207.03
2022-10-15T20:43:42.500Z,100206.41
2022-10-15T20:46:48.775Z,100212.38
2022-10-15T20:49:52.974Z,100219.31
2022-10-15T20:52:56.294Z,100219.41
2022-10-15T20:55:59.444Z,100217.59
2022-10-15T20:59:04.234Z,100223.72
2022-10-15T21:02:05.791Z,100221.03
2022-10-15T21:05:07.535Z,100228.25
2022-10-15T21:08:09.006Z,100230.16
2022-10-15T21:11:10.453Z,100225.59
2022-10-15T21:14:13.118Z,100233.50
2022-10-15T21:17:14.761Z,100231.88
2022-10-15T21:20:16.328Z,100235.38
2022-10-15T21:23:18.134Z,100233.50
2022-10-15T21:26:20.622Z,100228.09
2022-10-15T21:29:23.645Z,100231.56
2022-10-15T21:32:25.441Z,100249.75
2022-10-15T21:35:26.946Z,100242.53
2022-10-15T21:38:28.431Z,100249.38
2022-10-15T21:41:31.862Z,100255.56
2022-10-15T21:44:33.495Z,100257.34
2022-10-15T21:47:34.943Z,100256.22
2022-10-15T21:50:36.376Z,100258.31
2022-10-15T21:53:38.123Z,100255.44
2022-10-15T21:56:39.996Z,100260.41
2022-10-15T21:59:41.746Z,100260.03
2022-10-15T22:02:43.223Z,100253.75
2022-10-15T22:05:44.678Z,100248.34
2022-10-15T22:08:47.366Z,100245.56
2022-10-15T22:11:48.830Z,100254.69
2022-10-15T22:14:50.204Z,100256.59
2022-10-15T22:17:51.689Z,100254.59
2022-10-15T22:20:53.086Z,100260.69
2022-10-15T22:23:55.908Z,100263.25
2022-10-15T22:26:57.414Z,100274.19
2022-10-15T22:29:58.795Z,100262.69
2022-10-15T22:33:00.177Z,100269.53
2022-10-15T22:36:03.298Z,100260.59
2022-10-15T22:39:06.285Z,100268.56
2022-10-15T22:42:07.743Z,100256.22
2022-10-15T22:45:09.280Z,100265.19
2022-10-15T22:48:10.747Z,100266.84
2022-10-15T22:51:13.514Z,100257.28
2022-10-15T22:54:16.875Z,100248.22
2022-10-15T22:57:18.258Z,100239.28
2022-10-15T23:00:20.086Z,100250.13
2022-10-15T23:03:22.100Z,100258.13
2022-10-15T23:06:25.073Z,100257.56
2022-10-15T23:09:33.528Z,100256.59
2022-10-15T23:12:39.038Z,100258.22
2022-10-15T23:15:40.869Z,100261.75
2022-10-15T23:18:46.279Z,100256.41
2022-10-15T23:21:49.158Z,100266.19
2022-10-15T23:29:42.407Z,100258.69
2022-10-15T23:37:11.753Z,100269.69
2022-10-15T23:49:05.744Z,100268.19
2022-10-15T23:56:19.398Z,100271.63
2022-10-15T23:59:23.220Z,100287.59
